• Join FlightAware (Why Join?)
  • Login
  • US Flag 
03:49PM EDT


 

Airport Tracker/Info


-or-


 

Live Flight TrackerFlight Track Log ✈ KAP528 ✈ 07-May-2013 ✈ KBOS - KALB

Flight Track Log - Related Links

Times and Time Zones

All times are in EDT time to prevent confusion due to time zone crossing. See the KAP528 flight status page for this flight to view local times or setup timezone preferences in your user account.

Time Position Orientation Groundspeed Altitude Reporting Facility
EDT Latitude Longitude Course Direction KTS MPH feet Rate Location/Type
05:22PM 42.3833 -71.0000 270° West 122 140 400  Level KA90
05:23PM 42.4000 -71.0333 304° West 118 136 1,100 600 Climbing KA90
05:24PM 42.4000 -71.0833 270° West 120 138 1,600 480 Climbing KA90
05:25PM 42.4000 -71.1333 270° West 128 147 2,100 480 Climbing KA90
05:26PM 42.4000 -71.1667 270° West 122 140 2,600 540 Climbing KA90
05:27PM 42.3833 -71.2167 246° West 124 143 3,200 480 Climbing KA90
05:28PM 42.3167 -71.2958 270° West  Level FlightAware Approximate
05:28PM 42.3833 -71.2667 270° West 121 139 3,600  Level KA90
05:29PM 42.3667 -71.3167 246° West 128 147 4,100 480 Climbing KA90
05:30PM 42.3667 -71.3667 270° West 130 150 4,600 420 Climbing KA90
05:31PM 42.3539 -71.3808 219° Southwest 129 148 4,700 480 Climbing Boston Center
05:31PM 42.3417 -71.4233 249° West 133 153 5,200 480 Climbing Boston Center
05:32PM 42.3339 -71.4739 258° West 135 155 5,700 420 Climbing Boston Center
05:34PM 42.3217 -71.5303 254° West 135 155 6,200 420 Climbing Boston Center
05:35PM 42.3097 -71.5811 252° West 139 160 6,600 180 Climbing Boston Center
05:36PM 42.3081 -71.6428 268° West 153 176 6,600 -60 Level Boston Center
05:37PM 42.3147 -71.7017 279° West 173 199 6,500 -60 Descending Boston Center
05:38PM 42.3297 -71.7606 289° West 167 192 6,500  Level Boston Center
05:39PM 42.3425 -71.8250 285° West 159 183 6,600  Climbing Boston Center
05:40PM 42.3531 -71.8811 284° West 154 177 6,600  Level Boston Center
05:41PM 42.3639 -71.9342 285° West 155 178 6,600  Level Boston Center
05:42PM 42.3744 -71.9875 285° West 156 180 6,600  Level Boston Center
05:43PM 42.3872 -72.0467 286° West 155 178 6,600  Level Boston Center
05:44PM 42.3978 -72.1028 284° West 162 186 6,600  Level Boston Center
05:45PM 42.4167 -72.1842 287° West 162 186 6,600  Level Boston Center
05:46PM 42.4272 -72.2347 286° West 161 185 6,600  Level Boston Center
05:47PM 42.4378 -72.2853 286° West 163 188 6,600  Level Boston Center
05:48PM 42.4503 -72.3472 285° West 163 188 6,600  Level Boston Center
05:49PM 42.4650 -72.4092 288° West 162 186 6,600  Level Boston Center
05:50PM 42.4756 -72.4683 284° West 164 189 6,600  Level Boston Center
05:51PM 42.4878 -72.5275 286° West 162 186 6,600  Level Boston Center
05:52PM 42.4983 -72.5753 287° West 161 185 6,600  Level Boston Center
05:53PM 42.5106 -72.6400 284° West 164 189 6,600  Level Boston Center
05:54PM 42.5250 -72.7078 286° West 168 193 6,600 -60 Level Boston Center
05:55PM 42.5417 -72.7642 292° West 169 194 6,500 -120 Descending Boston Center
05:55PM 42.5458 -72.7867 284° West 168 193 6,500  Level Boston Center
05:56PM 42.5600 -72.8600 285° West 168 193 6,500  Level Boston Center
05:57PM 42.5725 -72.9194 286° West 164 189 6,600  Climbing Boston Center
05:58PM 42.5847 -72.9758 286° West 158 182 6,500 -60 Descending Boston Center
06:00PM 42.5967 -73.0408 284° West 161 185 6,500  Level Boston Center
06:01PM 42.6089 -73.1031 285° West 163 188 6,500  Level Boston Center
06:02PM 42.6233 -73.1594 289° West 161 185 6,600  Climbing Boston Center
06:03PM 42.6333 -73.2247 282° West 163 188 6,500  Descending Boston Center
06:04PM 42.6453 -73.2842 285° West 163 188 6,600 -120 Climbing Boston Center
06:05PM 42.6614 -73.3519 288° West 166 191 6,300 -480 Descending Boston Center
06:05PM 42.6672 -73.3944 281° West 178 205 5,800 -720 Descending Boston Center
06:07PM 42.6917 -73.4739 293° West 200 230 5,000 -720 Descending Boston Center
06:08PM 42.7139 -73.5422 294° West 199 229 4,200 -960 Descending Boston Center
06:09PM 42.7361 -73.6189 292° West 199 229 3,100 -1,260 Descending Boston Center
06:09PM 42.7500 -73.6700 290° West 192 221 2,000 -1,020 Descending Boston Center
06:10PM 42.7517 -73.7322 272° West 158 182 1,300 -780 Descending Boston Center
06:12PM 42.7489 -73.7858 266° West 135 155 500 -840 Descending Boston Center
06:14PM 42.7333 -73.8000 299° West  Level FlightAware Approximate
06:21PM 42.7491 -73.8020 299° West  Level Estimated
06:22PM 42.7491 -73.8020 299° West  Level Estimated
06:23PM 42.7491 -73.8020 299° West  Level Estimated